Arapaho, Oklahoma
Current Conditions -  °F | °C
As of 6:55 PM on Saturday 25 Oct 2014 (Local Time) from KCLK Reporting Station
Clear Clear  
Wind Chill: 26°   Ceiling: Unl
Heat Index: 26°   Visibility: 10mi
Dew Point: 10°   Wind: 7mph
Humidity: 36%   Direction: 160°SSE
Pressure: 30.02"   Gusts: NA
Location:  35.58°N, 98.96°W
Report Text: KCLK 252355Z AUTO 16006KT 10SM CLR 26/10 A3002 RMK AO2
Loading
Personal Weather Stations






























Interactive Weather Map
Tropical Storm Tracking
New forecast layout! Learn more

10-Day Weather Forecast

Advertisements
Track Severe Weather on mobile